Terminal Aerodrome Forecast
Issued by NWS Tuscon, AZ

Home | Current Version | Previous Version | Text Only | Print | Product List | Glossary On
Versions: 1 2 3 4 5 6 7 8 9 10 11 12 13 14 15 16 17 18 19
000
FTUS45 KTWC 191700
TAFTUS
TAF
KTUS 191729Z 1918/2018 VRB05KT P6SM VCSH SCT035 BKN100
     FM192000 33007KT P6SM VCSH SCT050 BKN120
     FM200200 14005KT P6SM SCT080
     FM201100 15008KT P6SM VCSH SCT040 BKN080=

USA.gov is the U.S. government's official web portal to all federal, state and local government web resources and services.